sensor_id;sensor_type;location;lat;lon;timestamp;pressure;altitude;pressure_sealevel;temperature;humidity
64841;BME280;51307;52.162;7.560;2023-04-08T00:01:11;101711.91;;;6.67;49.97
64841;BME280;51307;52.162;7.560;2023-04-08T00:03:39;101704.81;;;6.79;50.04
64841;BME280;51307;52.162;7.560;2023-04-08T00:06:04;101718.34;;;6.52;50.85
64841;BME280;51307;52.162;7.560;2023-04-08T00:08:30;101716.34;;;6.43;51.15
64841;BME280;51307;52.162;7.560;2023-04-08T00:10:56;101708.47;;;6.54;50.37
64841;BME280;51307;52.162;7.560;2023-04-08T00:13:21;101704.31;;;6.50;50.53
64841;BME280;51307;52.162;7.560;2023-04-08T00:15:50;101714.47;;;6.32;51.13
64841;BME280;51307;52.162;7.560;2023-04-08T00:18:21;101714.44;;;6.45;50.90
64841;BME280;51307;52.162;7.560;2023-04-08T00:20:47;101715.09;;;6.35;51.14
64841;BME280;51307;52.162;7.560;2023-04-08T00:23:12;101712.56;;;6.21;51.78
64841;BME280;51307;52.162;7.560;2023-04-08T00:25:38;101713.41;;;6.34;51.33
64841;BME280;51307;52.162;7.560;2023-04-08T00:28:03;101715.53;;;6.29;51.42
64841;BME280;51307;52.162;7.560;2023-04-08T00:30:31;101719.16;;;6.28;51.22
64841;BME280;51307;52.162;7.560;2023-04-08T00:32:57;101716.28;;;6.18;51.65
64841;BME280;51307;52.162;7.560;2023-04-08T00:35:22;101723.63;;;6.28;51.42
64841;BME280;51307;52.162;7.560;2023-04-08T00:37:48;101723.63;;;6.28;51.11
64841;BME280;51307;52.162;7.560;2023-04-08T00:40:14;101722.19;;;6.48;50.40
64841;BME280;51307;52.162;7.560;2023-04-08T00:42:40;101724.78;;;6.36;50.29
64841;BME280;51307;52.162;7.560;2023-04-08T00:45:05;101719.16;;;6.28;50.87
64841;BME280;51307;52.162;7.560;2023-04-08T00:47:31;101715.00;;;6.24;51.30
64841;BME280;51307;52.162;7.560;2023-04-08T00:49:57;101726.19;;;6.03;51.32
64841;BME280;51307;52.162;7.560;2023-04-08T00:52:22;101721.09;;;6.00;51.67
64841;BME280;51307;52.162;7.560;2023-04-08T00:54:48;101720.13;;;6.27;51.14
64841;BME280;51307;52.162;7.560;2023-04-08T00:57:14;101731.94;;;5.84;51.76
64841;BME280;51307;52.162;7.560;2023-04-08T00:59:41;101745.13;;;5.86;51.78
64841;BME280;51307;52.162;7.560;2023-04-08T01:07:47;101727.56;;;6.35;49.81
64841;BME280;51307;52.162;7.560;2023-04-08T01:10:29;101728.63;;;6.06;50.59
64841;BME280;51307;52.162;7.560;2023-04-08T01:13:02;101736.00;;;6.03;50.61
64841;BME280;51307;52.162;7.560;2023-04-08T01:15:30;101738.94;;;6.11;51.02
64841;BME280;51307;52.162;7.560;2023-04-08T01:17:59;101729.19;;;5.99;51.47
64841;BME280;51307;52.162;7.560;2023-04-08T01:20:26;101734.50;;;5.86;51.76
64841;BME280;51307;52.162;7.560;2023-04-08T01:25:53;101734.09;;;5.92;51.50
64841;BME280;51307;52.162;7.560;2023-04-08T01:28:22;101735.88;;;5.92;51.52
64841;BME280;51307;52.162;7.560;2023-04-08T01:30:50;101735.88;;;5.92;51.17
64841;BME280;51307;52.162;7.560;2023-04-08T01:33:21;101737.16;;;5.73;51.19
64841;BME280;51307;52.162;7.560;2023-04-08T01:35:47;101734.16;;;5.65;51.61
64841;BME280;51307;52.162;7.560;2023-04-08T01:38:17;101744.25;;;5.72;51.92
64841;BME280;51307;52.162;7.560;2023-04-08T01:40:46;101739.16;;;5.82;51.61
64841;BME280;51307;52.162;7.560;2023-04-08T01:43:16;101746.19;;;5.70;51.69
64841;BME280;51307;52.162;7.560;2023-04-08T01:45:47;101749.38;;;5.76;51.05
64841;BME280;51307;52.162;7.560;2023-04-08T01:48:14;101751.06;;;5.64;51.49
64841;BME280;51307;52.162;7.560;2023-04-08T01:50:42;101755.31;;;5.66;52.12
64841;BME280;51307;52.162;7.560;2023-04-08T01:53:09;101752.00;;;5.50;51.61
64841;BME280;51307;52.162;7.560;2023-04-08T01:55:37;101761.38;;;5.55;52.29
64841;BME280;51307;52.162;7.560;2023-04-08T01:58:06;101768.97;;;5.47;52.67
64841;BME280;51307;52.162;7.560;2023-04-08T02:00:33;101764.31;;;5.51;52.48
64841;BME280;51307;52.162;7.560;2023-04-08T02:03:02;101757.28;;;5.50;52.82
64841;BME280;51307;52.162;7.560;2023-04-08T02:05:30;101757.66;;;5.71;52.18
64841;BME280;51307;52.162;7.560;2023-04-08T02:07:55;101762.84;;;5.60;52.33
64841;BME280;51307;52.162;7.560;2023-04-08T02:10:21;101760.44;;;5.95;51.37
64841;BME280;51307;52.162;7.560;2023-04-08T02:12:47;101760.94;;;5.87;51.25
64841;BME280;51307;52.162;7.560;2023-04-08T02:15:13;101753.09;;;5.73;51.78
64841;BME280;51307;52.162;7.560;2023-04-08T02:17:47;101756.06;;;5.81;52.54
64841;BME280;51307;52.162;7.560;2023-04-08T02:20:27;101751.63;;;5.69;52.84
64841;BME280;51307;52.162;7.560;2023-04-08T02:23:23;101751.59;;;5.56;53.48
64841;BME280;51307;52.162;7.560;2023-04-08T02:25:52;101752.13;;;5.61;53.16
64841;BME280;51307;52.162;7.560;2023-04-08T02:28:20;101754.56;;;5.64;53.72
64841;BME280;51307;52.162;7.560;2023-04-08T02:30:51;101757.53;;;5.60;53.55
64841;BME280;51307;52.162;7.560;2023-04-08T02:33:20;101756.34;;;5.51;53.39
64841;BME280;51307;52.162;7.560;2023-04-08T02:35:49;101755.19;;;5.55;53.55
64841;BME280;51307;52.162;7.560;2023-04-08T02:38:15;101763.75;;;5.46;53.08
64841;BME280;51307;52.162;7.560;2023-04-08T02:40:41;101769.06;;;5.46;53.31
64841;BME280;51307;52.162;7.560;2023-04-08T02:43:07;101771.44;;;5.50;53.49
64841;BME280;51307;52.162;7.560;2023-04-08T02:45:37;101771.41;;;5.37;53.81
64841;BME280;51307;52.162;7.560;2023-04-08T02:48:05;101767.25;;;5.33;54.17
64841;BME280;51307;52.162;7.560;2023-04-08T02:50:30;101772.66;;;5.32;54.03
64841;BME280;51307;52.162;7.560;2023-04-08T02:52:56;101778.81;;;5.32;53.98
64841;BME280;51307;52.162;7.560;2023-04-08T02:55:21;101775.97;;;5.35;53.88
64841;BME280;51307;52.162;7.560;2023-04-08T02:57:48;101780.06;;;5.27;53.86
64841;BME280;51307;52.162;7.560;2023-04-08T03:00:14;101784.97;;;5.33;54.43
64841;BME280;51307;52.162;7.560;2023-04-08T03:02:40;101780.03;;;5.14;54.80
64841;BME280;51307;52.162;7.560;2023-04-08T03:05:06;101784.53;;;5.26;54.94
64841;BME280;51307;52.162;7.560;2023-04-08T03:07:33;101791.34;;;5.30;54.81
64841;BME280;51307;52.162;7.560;2023-04-08T03:10:01;101788.53;;;5.19;54.79
64841;BME280;51307;52.162;7.560;2023-04-08T03:12:27;101786.34;;;4.98;55.36
64841;BME280;51307;52.162;7.560;2023-04-08T03:14:52;101795.78;;;4.75;55.99
64841;BME280;51307;52.162;7.560;2023-04-08T03:17:18;101797.50;;;4.76;56.21
64841;BME280;51307;52.162;7.560;2023-04-08T03:19:44;101796.84;;;4.58;56.59
64841;BME280;51307;52.162;7.560;2023-04-08T03:22:09;101791.59;;;5.13;55.76
64841;BME280;51307;52.162;7.560;2023-04-08T03:24:35;101796.31;;;5.62;54.60
64841;BME280;51307;52.162;7.560;2023-04-08T03:27:02;101796.31;;;5.62;54.13
64841;BME280;51307;52.162;7.560;2023-04-08T03:29:27;101789.41;;;5.72;54.05
64841;BME280;51307;52.162;7.560;2023-04-08T03:31:53;101798.88;;;5.77;54.12
64841;BME280;51307;52.162;7.560;2023-04-08T03:34:18;101796.31;;;5.62;55.05
64841;BME280;51307;52.162;7.560;2023-04-08T03:36:44;101795.34;;;5.63;55.37
64841;BME280;51307;52.162;7.560;2023-04-08T03:39:09;101791.41;;;5.56;55.40
64841;BME280;51307;52.162;7.560;2023-04-08T03:41:35;101789.69;;;5.55;55.23
64841;BME280;51307;52.162;7.560;2023-04-08T03:44:00;101789.84;;;5.66;55.76
64841;BME280;51307;52.162;7.560;2023-04-08T03:46:26;101789.06;;;5.51;55.69
64841;BME280;51307;52.162;7.560;2023-04-08T03:48:52;101791.41;;;5.56;55.40
64841;BME280;51307;52.162;7.560;2023-04-08T03:51:17;101789.16;;;5.50;55.71
64841;BME280;51307;52.162;7.560;2023-04-08T03:53:43;101789.63;;;5.69;55.41
64841;BME280;51307;52.162;7.560;2023-04-08T03:56:08;101785.34;;;5.54;56.21
64841;BME280;51307;52.162;7.560;2023-04-08T03:58:34;101784.56;;;5.39;56.60
64841;BME280;51307;52.162;7.560;2023-04-08T04:00:59;101793.56;;;5.64;56.20
64841;BME280;51307;52.162;7.560;2023-04-08T04:03:25;101790.34;;;5.59;57.19
64841;BME280;51307;52.162;7.560;2023-04-08T04:05:51;101793.44;;;5.65;57.05
64841;BME280;51307;52.162;7.560;2023-04-08T04:08:16;101797.19;;;5.76;56.66
64841;BME280;51307;52.162;7.560;2023-04-08T04:10:42;101783.38;;;5.70;56.06
64841;BME280;51307;52.162;7.560;2023-04-08T04:13:08;101794.00;;;5.83;55.52
64841;BME280;51307;52.162;7.560;2023-04-08T04:15:37;101791.22;;;5.72;55.59
64841;BME280;51307;52.162;7.560;2023-04-08T04:18:03;101783.56;;;5.67;55.66
64841;BME280;51307;52.162;7.560;2023-04-08T04:20:28;101793.38;;;5.80;55.33
64841;BME280;51307;52.162;7.560;2023-04-08T04:22:54;101791.66;;;5.79;55.66
64841;BME280;51307;52.162;7.560;2023-04-08T04:25:20;101806.00;;;5.76;56.06
64841;BME280;51307;52.162;7.560;2023-04-08T04:27:45;101799.63;;;5.79;56.27
64841;BME280;51307;52.162;7.560;2023-04-08T04:30:11;101804.50;;;5.72;56.24
64841;BME280;51307;52.162;7.560;2023-04-08T04:32:40;101809.50;;;5.77;56.40
64841;BME280;51307;52.162;7.560;2023-04-08T04:35:10;101811.09;;;5.66;56.21
64841;BME280;51307;52.162;7.560;2023-04-08T04:37:35;101808.13;;;5.84;56.18
64841;BME280;51307;52.162;7.560;2023-04-08T04:40:04;101820.22;;;5.75;56.36
64841;BME280;51307;52.162;7.560;2023-04-08T04:42:47;101814.13;;;5.60;56.48
64841;BME280;51307;52.162;7.560;2023-04-08T04:45:12;101805.34;;;5.60;56.56
64841;BME280;51307;52.162;7.560;2023-04-08T04:47:38;101815.63;;;5.51;56.87
64841;BME280;51307;52.162;7.560;2023-04-08T04:50:04;101818.00;;;5.42;57.08
64841;BME280;51307;52.162;7.560;2023-04-08T04:52:30;101819.00;;;5.53;57.40
64841;BME280;51307;52.162;7.560;2023-04-08T04:54:58;101823.97;;;5.45;57.51
64841;BME280;51307;52.162;7.560;2023-04-08T04:57:24;101824.22;;;5.55;57.39
64841;BME280;51307;52.162;7.560;2023-04-08T04:59:49;101831.56;;;5.51;57.49
64841;BME280;51307;52.162;7.560;2023-04-08T05:02:15;101829.69;;;5.66;57.19
64841;BME280;51307;52.162;7.560;2023-04-08T05:04:41;101827.84;;;5.67;57.57
64841;BME280;51307;52.162;7.560;2023-04-08T05:07:06;101835.50;;;5.71;57.70
64841;BME280;51307;52.162;7.560;2023-04-08T05:09:32;101845.84;;;5.89;57.74
64841;BME280;51307;52.162;7.560;2023-04-08T05:11:57;101832.31;;;5.66;57.24
64841;BME280;51307;52.162;7.560;2023-04-08T05:14:23;101839.47;;;5.79;56.97
64841;BME280;51307;52.162;7.560;2023-04-08T05:16:48;101842.84;;;5.68;57.34
64841;BME280;51307;52.162;7.560;2023-04-08T05:19:14;101846.34;;;5.68;57.18
64841;BME280;51307;52.162;7.560;2023-04-08T05:21:40;101844.06;;;5.89;56.91
64841;BME280;51307;52.162;7.560;2023-04-08T05:24:06;101844.63;;;5.67;57.21
64841;BME280;51307;52.162;7.560;2023-04-08T05:26:31;101847.72;;;5.61;57.56
64841;BME280;51307;52.162;7.560;2023-04-08T05:28:57;101864.78;;;5.97;56.74
64841;BME280;51307;52.162;7.560;2023-04-08T05:31:22;101854.66;;;6.02;56.89
64841;BME280;51307;52.162;7.560;2023-04-08T05:33:48;101858.06;;;5.92;57.34
64841;BME280;51307;52.162;7.560;2023-04-08T05:36:14;101867.00;;;6.03;57.66
64841;BME280;51307;52.162;7.560;2023-04-08T05:38:40;101863.72;;;6.13;57.45
64841;BME280;51307;52.162;7.560;2023-04-08T05:41:07;101858.00;;;6.19;57.09
64841;BME280;51307;52.162;7.560;2023-04-08T05:43:33;101858.19;;;6.16;57.12
64841;BME280;51307;52.162;7.560;2023-04-08T05:45:58;101856.50;;;6.28;56.87
64841;BME280;51307;52.162;7.560;2023-04-08T05:48:24;101856.06;;;6.47;56.69
64841;BME280;51307;52.162;7.560;2023-04-08T05:50:49;101856.19;;;6.19;57.64
64841;BME280;51307;52.162;7.560;2023-04-08T05:53:15;101862.44;;;6.18;57.82
64841;BME280;51307;52.162;7.560;2023-04-08T05:55:41;101862.47;;;6.05;58.23
64841;BME280;51307;52.162;7.560;2023-04-08T05:58:06;101868.53;;;6.20;57.98
64841;BME280;51307;52.162;7.560;2023-04-08T06:00:32;101874.81;;;6.32;58.17
64841;BME280;51307;52.162;7.560;2023-04-08T06:02:57;101881.06;;;6.57;57.37
64841;BME280;51307;52.162;7.560;2023-04-08T06:05:23;101875.09;;;6.53;57.77
64841;BME280;51307;52.162;7.560;2023-04-08T06:07:48;101878.28;;;6.71;57.29
64841;BME280;51307;52.162;7.560;2023-04-08T06:10:14;101870.84;;;6.77;57.06
64841;BME280;51307;52.162;7.560;2023-04-08T06:12:40;101881.50;;;6.64;57.53
64841;BME280;51307;52.162;7.560;2023-04-08T06:15:06;101889.88;;;6.70;57.91
64841;BME280;51307;52.162;7.560;2023-04-08T06:17:35;101892.41;;;6.98;57.20
64841;BME280;51307;52.162;7.560;2023-04-08T06:20:01;101897.03;;;6.96;57.48
64841;BME280;51307;52.162;7.560;2023-04-08T06:22:28;101900.06;;;6.89;57.70
64841;BME280;51307;52.162;7.560;2023-04-08T06:24:54;101901.03;;;7.01;58.13
64841;BME280;51307;52.162;7.560;2023-04-08T06:27:19;101897.19;;;7.05;57.71
64841;BME280;51307;52.162;7.560;2023-04-08T06:29:45;101904.56;;;6.89;57.96
64841;BME280;51307;52.162;7.560;2023-04-08T06:32:12;101912.09;;;7.08;57.68
64841;BME280;51307;52.162;7.560;2023-04-08T06:34:38;101910.22;;;6.97;57.82
64841;BME280;51307;52.162;7.560;2023-04-08T06:37:03;101919.25;;;7.07;57.60
64841;BME280;51307;52.162;7.560;2023-04-08T06:39:30;101918.09;;;6.73;58.80
64841;BME280;51307;52.162;7.560;2023-04-08T06:41:56;101917.44;;;6.95;58.22
64841;BME280;51307;52.162;7.560;2023-04-08T06:44:22;101916.19;;;7.01;58.41
64841;BME280;51307;52.162;7.560;2023-04-08T06:46:48;101907.72;;;7.20;58.26
64841;BME280;51307;52.162;7.560;2023-04-08T06:49:13;101911.09;;;7.22;58.22
64841;BME280;51307;52.162;7.560;2023-04-08T06:51:39;101907.97;;;7.04;58.20
64841;BME280;51307;52.162;7.560;2023-04-08T06:54:05;101901.47;;;7.08;58.60
64841;BME280;51307;52.162;7.560;2023-04-08T06:56:30;101910.63;;;7.04;58.66
64841;BME280;51307;52.162;7.560;2023-04-08T06:58:56;101912.13;;;7.32;58.17
64841;BME280;51307;52.162;7.560;2023-04-08T07:01:21;101925.50;;;7.44;58.20
64841;BME280;51307;52.162;7.560;2023-04-08T07:03:48;101925.44;;;7.32;58.12
64841;BME280;51307;52.162;7.560;2023-04-08T07:06:13;101932.97;;;7.38;58.66
64841;BME280;51307;52.162;7.560;2023-04-08T07:08:39;101935.44;;;7.41;58.12
64841;BME280;51307;52.162;7.560;2023-04-08T07:11:04;101957.94;;;7.37;58.24
64841;BME280;51307;52.162;7.560;2023-04-08T07:13:30;101943.19;;;7.45;58.22
64841;BME280;51307;52.162;7.560;2023-04-08T07:15:55;101947.69;;;7.44;58.07
64841;BME280;51307;52.162;7.560;2023-04-08T07:18:21;101941.94;;;7.37;58.16
64841;BME280;51307;52.162;7.560;2023-04-08T07:20:51;101956.84;;;7.40;58.34
64841;BME280;51307;52.162;7.560;2023-04-08T07:23:18;101951.19;;;7.45;58.36
64841;BME280;51307;52.162;7.560;2023-04-08T07:25:45;101955.22;;;7.50;57.99
64841;BME280;51307;52.162;7.560;2023-04-08T07:28:11;101960.50;;;7.26;58.37
64841;BME280;51307;52.162;7.560;2023-04-08T07:30:36;101956.19;;;7.49;58.11
64841;BME280;51307;52.162;7.560;2023-04-08T07:33:02;101963.84;;;7.41;58.18
64841;BME280;51307;52.162;7.560;2023-04-08T07:35:27;101966.22;;;7.46;57.91
64841;BME280;51307;52.162;7.560;2023-04-08T07:37:53;101968.31;;;7.53;58.00
64841;BME280;51307;52.162;7.560;2023-04-08T07:40:19;101971.31;;;7.49;58.83
64841;BME280;51307;52.162;7.560;2023-04-08T07:42:45;101969.59;;;7.48;58.02
64841;BME280;51307;52.162;7.560;2023-04-08T07:45:11;101959.97;;;7.58;57.69
64841;BME280;51307;52.162;7.560;2023-04-08T07:47:36;101964.25;;;7.48;57.97
64841;BME280;51307;52.162;7.560;2023-04-08T07:50:02;101965.44;;;7.56;58.28
64841;BME280;51307;52.162;7.560;2023-04-08T07:52:31;101973.06;;;7.61;57.98
64841;BME280;51307;52.162;7.560;2023-04-08T07:54:56;101974.06;;;7.60;58.49
64841;BME280;51307;52.162;7.560;2023-04-08T07:57:22;101977.50;;;7.36;59.04
64841;BME280;51307;52.162;7.560;2023-04-08T07:59:47;101971.88;;;7.65;58.48
64841;BME280;51307;52.162;7.560;2023-04-08T08:02:13;101973.03;;;7.74;58.02
64841;BME280;51307;52.162;7.560;2023-04-08T08:04:38;101983.56;;;7.75;58.76
64841;BME280;51307;52.162;7.560;2023-04-08T08:07:04;101991.13;;;7.82;58.32
64841;BME280;51307;52.162;7.560;2023-04-08T08:09:29;101985.22;;;7.89;57.48
64841;BME280;51307;52.162;7.560;2023-04-08T08:11:55;101979.31;;;7.97;57.46
64841;BME280;51307;52.162;7.560;2023-04-08T08:14:21;101984.13;;;7.92;57.13
64841;BME280;51307;52.162;7.560;2023-04-08T08:16:46;101982.94;;;7.96;57.11
64841;BME280;51307;52.162;7.560;2023-04-08T08:19:12;101990.34;;;7.93;57.24
64841;BME280;51307;52.162;7.560;2023-04-08T08:21:39;101996.34;;;8.07;57.18
64841;BME280;51307;52.162;7.560;2023-04-08T08:24:05;102002.63;;;8.06;57.59
64841;BME280;51307;52.162;7.560;2023-04-08T08:26:30;102000.06;;;8.05;57.60
64841;BME280;51307;52.162;7.560;2023-04-08T08:28:56;102001.44;;;8.11;57.36
64841;BME280;51307;52.162;7.560;2023-04-08T08:31:21;101999.78;;;8.21;57.86
64841;BME280;51307;52.162;7.560;2023-04-08T08:33:47;102007.78;;;8.21;58.78
64841;BME280;51307;52.162;7.560;2023-04-08T08:36:12;102014.06;;;8.20;58.46
64841;BME280;51307;52.162;7.560;2023-04-08T08:38:38;102010.22;;;8.24;57.85
64841;BME280;51307;52.162;7.560;2023-04-08T08:41:04;102015.19;;;8.04;56.34
64841;BME280;51307;52.162;7.560;2023-04-08T08:43:29;102012.84;;;8.13;56.14
64841;BME280;51307;52.162;7.560;2023-04-08T08:45:58;102021.78;;;8.12;56.22
64841;BME280;51307;52.162;7.560;2023-04-08T08:48:24;102016.06;;;8.29;55.96
64841;BME280;51307;52.162;7.560;2023-04-08T08:50:50;102014.44;;;8.15;56.57
64841;BME280;51307;52.162;7.560;2023-04-08T08:53:16;102024.63;;;8.21;56.88
64841;BME280;51307;52.162;7.560;2023-04-08T08:55:42;102022.59;;;8.25;56.70
64841;BME280;51307;52.162;7.560;2023-04-08T08:58:08;102019.03;;;8.24;56.19
64841;BME280;51307;52.162;7.560;2023-04-08T09:00:39;102020.22;;;8.09;56.69
64841;BME280;51307;52.162;7.560;2023-04-08T09:03:20;102032.84;;;8.18;56.68
64841;BME280;51307;52.162;7.560;2023-04-08T09:05:53;102028.50;;;8.29;56.53
64841;BME280;51307;52.162;7.560;2023-04-08T09:10:48;102031.53;;;8.24;56.15
64841;BME280;51307;52.162;7.560;2023-04-08T09:13:13;102037.31;;;8.18;56.21
64841;BME280;51307;52.162;7.560;2023-04-08T09:16:01;102027.13;;;8.47;55.37
64841;BME280;51307;52.162;7.560;2023-04-08T09:18:31;102032.44;;;8.36;55.42
64841;BME280;51307;52.162;7.560;2023-04-08T09:21:05;102035.50;;;8.42;55.15
64841;BME280;51307;52.162;7.560;2023-04-08T09:28:35;102038.81;;;8.57;56.00
64841;BME280;51307;52.162;7.560;2023-04-08T09:31:00;102035.78;;;8.62;56.86
64841;BME280;51307;52.162;7.560;2023-04-08T09:33:33;102033.16;;;8.38;56.15
64841;BME280;51307;52.162;7.560;2023-04-08T09:35:59;102038.94;;;8.56;55.61
64841;BME280;51307;52.162;7.560;2023-04-08T09:38:24;102028.78;;;8.61;55.77
64841;BME280;51307;52.162;7.560;2023-04-08T09:40:51;102029.25;;;8.66;55.68
64841;BME280;51307;52.162;7.560;2023-04-08T09:43:23;102031.91;;;8.66;55.90
64841;BME280;51307;52.162;7.560;2023-04-08T09:45:49;102034.03;;;8.38;56.03
64841;BME280;51307;52.162;7.560;2023-04-08T09:48:25;102036.28;;;8.56;55.85
64841;BME280;51307;52.162;7.560;2023-04-08T09:50:56;102042.94;;;8.50;56.31
64841;BME280;51307;52.162;7.560;2023-04-08T09:53:36;102042.88;;;8.74;56.00
64841;BME280;51307;52.162;7.560;2023-04-08T09:56:07;102037.63;;;8.62;55.38
64841;BME280;51307;52.162;7.560;2023-04-08T09:58:48;102037.63;;;8.73;55.55
64841;BME280;51307;52.162;7.560;2023-04-08T10:01:23;102043.75;;;8.86;55.85
64841;BME280;51307;52.162;7.560;2023-04-08T10:03:54;102035.34;;;8.80;55.69
64841;BME280;51307;52.162;7.560;2023-04-08T10:06:27;102037.63;;;8.73;56.01
64841;BME280;51307;52.162;7.560;2023-04-08T10:08:55;102032.53;;;8.70;55.56
64841;BME280;51307;52.162;7.560;2023-04-08T10:11:20;102034.66;;;8.89;55.09
64841;BME280;51307;52.162;7.560;2023-04-08T10:13:47;102030.28;;;8.88;55.77
64841;BME280;51307;52.162;7.560;2023-04-08T10:16:24;102033.53;;;8.80;56.05
64841;BME280;51307;52.162;7.560;2023-04-08T10:18:55;102029.41;;;8.76;56.12
64841;BME280;51307;52.162;7.560;2023-04-08T10:21:34;102033.63;;;8.67;56.38
64841;BME280;51307;52.162;7.560;2023-04-08T10:24:01;102035.41;;;8.91;56.05
64841;BME280;51307;52.162;7.560;2023-04-08T10:26:44;102042.81;;;9.21;56.19
64841;BME280;51307;52.162;7.560;2023-04-08T10:31:54;102042.34;;;9.39;55.73
64841;BME280;51307;52.162;7.560;2023-04-08T10:34:23;102047.81;;;9.37;55.99
64841;BME280;51307;52.162;7.560;2023-04-08T10:36:53;102041.13;;;9.32;55.43
64841;BME280;51307;52.162;7.560;2023-04-08T10:39:20;102043.06;;;9.30;54.89
64841;BME280;51307;52.162;7.560;2023-04-08T10:41:48;102051.22;;;9.05;55.49
64841;BME280;51307;52.162;7.560;2023-04-08T10:44:15;102047.47;;;9.42;55.39
64841;BME280;51307;52.162;7.560;2023-04-08T10:46:44;102050.72;;;9.46;54.94
64841;BME280;51307;52.162;7.560;2023-04-08T10:49:11;102043.94;;;9.53;54.49
64841;BME280;51307;52.162;7.560;2023-04-08T10:51:37;102046.59;;;9.41;55.83
64841;BME280;51307;52.162;7.560;2023-04-08T10:54:08;102047.22;;;9.45;55.16
64841;BME280;51307;52.162;7.560;2023-04-08T10:56:49;102043.78;;;9.43;54.97
64841;BME280;51307;52.162;7.560;2023-04-08T10:59:29;102043.69;;;9.45;55.31
64841;BME280;51307;52.162;7.560;2023-04-08T11:01:56;102047.31;;;9.32;55.71
64841;BME280;51307;52.162;7.560;2023-04-08T11:04:22;102048.78;;;9.48;55.86
64841;BME280;51307;52.162;7.560;2023-04-08T11:06:49;102049.75;;;9.58;56.13
64841;BME280;51307;52.162;7.560;2023-04-08T11:09:15;102043.41;;;9.59;56.16
64841;BME280;51307;52.162;7.560;2023-04-08T11:11:44;102047.19;;;9.68;56.59
64841;BME280;51307;52.162;7.560;2023-04-08T11:14:11;102043.19;;;9.62;56.97
64841;BME280;51307;52.162;7.560;2023-04-08T11:16:38;102047.56;;;9.52;56.05
64841;BME280;51307;52.162;7.560;2023-04-08T11:19:04;102049.00;;;9.67;55.45
64841;BME280;51307;52.162;7.560;2023-04-08T11:21:33;102048.25;;;9.76;56.09
64841;BME280;51307;52.162;7.560;2023-04-08T11:23:59;102048.47;;;9.85;56.61
64841;BME280;51307;52.162;7.560;2023-04-08T11:26:26;102056.41;;;9.86;55.99
64841;BME280;51307;52.162;7.560;2023-04-08T11:28:52;102047.69;;;9.39;56.18
64841;BME280;51307;52.162;7.560;2023-04-08T11:31:20;102038.81;;;9.61;55.78
64841;BME280;51307;52.162;7.560;2023-04-08T11:33:48;102040.63;;;9.60;55.89
64841;BME280;51307;52.162;7.560;2023-04-08T11:36:16;102038.25;;;9.90;55.73
64841;BME280;51307;52.162;7.560;2023-04-08T11:38:43;102049.06;;;10.00;56.44
64841;BME280;51307;52.162;7.560;2023-04-08T11:41:10;102046.50;;;9.98;55.49
64841;BME280;51307;52.162;7.560;2023-04-08T11:43:36;102039.44;;;10.08;55.91
64841;BME280;51307;52.162;7.560;2023-04-08T11:46:09;102044.31;;;10.03;55.12
64841;BME280;51307;52.162;7.560;2023-04-08T11:48:35;102037.38;;;10.01;55.22
64841;BME280;51307;52.162;7.560;2023-04-08T11:51:07;102045.25;;;10.14;55.39
64841;BME280;51307;52.162;7.560;2023-04-08T11:53:37;102045.25;;;10.14;56.33
64841;BME280;51307;52.162;7.560;2023-04-08T11:58:41;102044.50;;;10.23;55.61
64841;BME280;51307;52.162;7.560;2023-04-08T12:01:07;102055.13;;;10.34;55.91
64841;BME280;51307;52.162;7.560;2023-04-08T12:03:32;102050.53;;;10.36;56.44
64841;BME280;51307;52.162;7.560;2023-04-08T12:05:58;102049.22;;;10.31;56.02
64841;BME280;51307;52.162;7.560;2023-04-08T12:08:23;102054.47;;;10.21;55.78
64841;BME280;51307;52.162;7.560;2023-04-08T12:10:49;102056.63;;;10.27;55.29
64841;BME280;51307;52.162;7.560;2023-04-08T12:13:14;102057.25;;;10.31;55.31
64841;BME280;51307;52.162;7.560;2023-04-08T12:15:40;102062.75;;;10.18;55.19
64841;BME280;51307;52.162;7.560;2023-04-08T12:18:06;102055.75;;;10.38;55.73
64841;BME280;51307;52.162;7.560;2023-04-08T12:20:31;102055.56;;;10.18;54.80
64841;BME280;51307;52.162;7.560;2023-04-08T12:22:57;102057.00;;;10.22;55.76
64841;BME280;51307;52.162;7.560;2023-04-08T12:25:22;102054.22;;;10.24;55.28
64841;BME280;51307;52.162;7.560;2023-04-08T12:27:48;102052.25;;;10.26;56.16
64841;BME280;51307;52.162;7.560;2023-04-08T12:30:13;102049.09;;;10.32;55.63
64841;BME280;51307;52.162;7.560;2023-04-08T12:32:39;102045.19;;;10.25;55.03
64841;BME280;51307;52.162;7.560;2023-04-08T12:35:07;102043.00;;;10.30;54.52
64841;BME280;51307;52.162;7.560;2023-04-08T12:37:32;102047.84;;;10.36;54.86
64841;BME280;51307;52.162;7.560;2023-04-08T12:39:58;102052.19;;;10.49;55.30
64841;BME280;51307;52.162;7.560;2023-04-08T12:42:23;102054.28;;;10.45;55.21
64841;BME280;51307;52.162;7.560;2023-04-08T12:44:49;102047.44;;;10.41;55.20
64841;BME280;51307;52.162;7.560;2023-04-08T12:47:15;102050.22;;;10.51;55.16
64841;BME280;51307;52.162;7.560;2023-04-08T12:49:40;102049.44;;;10.60;55.19
64841;BME280;51307;52.162;7.560;2023-04-08T12:52:06;102054.94;;;10.58;55.18
64841;BME280;51307;52.162;7.560;2023-04-08T12:54:31;102054.38;;;10.55;54.26
64841;BME280;51307;52.162;7.560;2023-04-08T12:56:57;102055.84;;;10.48;54.75
64841;BME280;51307;52.162;7.560;2023-04-08T12:59:22;102060.09;;;10.50;55.32
64841;BME280;51307;52.162;7.560;2023-04-08T13:01:48;102056.81;;;10.47;55.26
64841;BME280;51307;52.162;7.560;2023-04-08T13:04:13;102055.97;;;10.46;55.05
64841;BME280;51307;52.162;7.560;2023-04-08T13:06:39;102058.66;;;10.46;55.23
64841;BME280;51307;52.162;7.560;2023-04-08T13:09:04;102049.66;;;10.36;55.17
64841;BME280;51307;52.162;7.560;2023-04-08T13:11:30;102051.16;;;10.29;55.54
64841;BME280;51307;52.162;7.560;2023-04-08T13:13:58;102051.69;;;10.55;55.74
64841;BME280;51307;52.162;7.560;2023-04-08T13:16:24;102050.00;;;10.54;55.43
64841;BME280;51307;52.162;7.560;2023-04-08T13:18:49;102050.56;;;10.57;55.72
64841;BME280;51307;52.162;7.560;2023-04-08T13:21:16;102052.06;;;10.50;55.14